Aérodrome :
LOGIN :

S'inscrire | Disclaimer

   EN    FR    IT 

 










Légende :    VFR   VFR Marginal   IFR   IFR Intensif   IFR Très Intensif
Visi : 
Plafond : 
>= 8 km
>= 3000ft
5 à 8 km
1000 à 3000 ft
1500m à 5 km
500 à 1000 ft
800 à 1500m
200 à 500 ft
< 800m
< 200 ft
Symboles :   Orages  Brouillard  Fortes neiges  Fortes précipitations  Vent > 20 kt
SIGMETs :   Divers  Orages  Givrage  Turbulence  Onde Orograph.  Cendres Volcan.






- Altitude de l'aérodrome : 125 ft
- Code IATA : MGL


EDLN - Mönchengladbach

DERNIER METAR :
  • 240220Z AUTO 12004KT 6000 // OVC012/// M01/M01 Q1025

METARs EXPIRÉS :
  • 240150Z AUTO 13003KT 7000 // BKN012/// M01/M01 Q1025
  • 240120Z AUTO 12004KT 7000 // FEW011/// M00/M01 Q1025
  • 240050Z AUTO 12005KT 8000 // OVC010/// 01/M00 Q1025
  • 240020Z AUTO 11004KT 7000 // OVC011/// 01/00 Q1025
  • 232350Z AUTO 13004KT 7000 // OVC012/// 01/M00 Q1026
  • 232320Z AUTO 10003KT 9000 // OVC014/// 01/M00 Q1026

TAF TAF EDLN
Valide du 23 à 18h jusqu'au 24 à 03h UTC


231700Z 2318/2403 14004KT 9000 OVC010
TEMPO 2318/2403 4000 BR
PROB30
TEMPO 2318/2403 0500 FZFG BKN003



MET'MAP, la Météo Aéronautique d'un coup d'oeil ! - Copyright ORBIFLY Décembre 2007 - Disclaimer

ORBIFLY MET'MAP TEAM :

Programmation & Développement : Alexandra Zaïnal
Sur une idée originale de : Baudouin d'Aumeries
Assistance à la programmation : Marc-Olivier Méhu
Soutien technique & logistique : Manuel Goepfert

Contact : metmap@orbifly.com




SOURCES & CREDITS :

   NOAA